Time;durP1;ratioP1;P1;durP2;ratioP2;P2;SDS_P1;SDS_P2;PMS_P1;PMS_P2;Temp;Humidity;BMP_temperature;BMP_pressure;BME280_temperature;BME280_humidity;BME280_pressure;Samples;Min_cycle;Max_cycle;Signal;HPM_P1;HPM_P2
2022/12/25 00:01:17;;;;;;;32.28;16.73;;;;;;;6.63;100.00;97083.88;5006467;28;20103;-56
2022/12/25 00:03:44;;;;;;;46.83;22.85;;;;;;;6.61;99.61;97075.16;5004281;28;20599;-56
2022/12/25 00:06:11;;;;;;;25.17;13.68;;;;;;;6.51;100.00;97074.81;4986651;28;20046;-60
2022/12/25 00:08:38;;;;;;;22.92;11.60;;;;;;;6.14;100.00;97019.78;4987552;28;20065;-60
2022/12/25 00:11:12;;;;;;;35.15;19.10;;;;;;;5.91;100.00;96998.56;4987352;28;20449;-61
2022/12/25 00:13:38;;;;;;;;;;;;;;;6.40;100.00;97079.97;4987534;28;20494;-59
2022/12/25 00:16:17;;;;;;;31.60;15.82;;;;;;;5.24;100.00;96923.94;4984907;28;20420;-57
2022/12/25 00:18:45;;;;;;;31.73;16.40;;;;;;;6.06;100.00;97091.34;4986908;28;20054;-58
2022/12/25 00:21:12;;;;;;;49.38;22.67;;;;;;;5.97;100.00;97077.69;4984949;28;20065;-56
2022/12/25 00:23:39;;;;;;;33.20;17.70;;;;;;;6.17;100.00;97109.03;4986882;28;20089;-55
2022/12/25 00:26:09;;;;;;;25.23;13.05;;;;;;;5.88;100.00;97117.44;5005947;28;20119;-55
2022/12/25 00:28:36;;;;;;;39.15;19.05;;;;;;;5.76;100.00;97081.59;5006292;28;20505;-60
2022/12/25 00:31:07;;;;;;;35.25;15.80;;;;;;;6.03;100.00;97114.03;5005624;28;21254;-60
2022/12/25 00:33:38;;;;;;;37.13;18.10;;;;;;;5.93;100.00;97125.44;5006271;28;20471;-55
2022/12/25 00:36:06;;;;;;;67.97;28.30;;;;;;;5.87;100.00;97121.31;5005720;28;20613;-55
2022/12/25 00:38:34;;;;;;;56.22;25.55;;;;;;;5.78;100.00;97123.31;5005450;28;20076;-59
2022/12/25 00:41:07;;;;;;;46.08;22.42;;;;;;;5.75;100.00;97123.97;5005023;28;20068;-55
2022/12/25 00:43:33;;;;;;;40.47;18.75;;;;;;;5.76;100.00;97126.41;5004058;28;20062;-55
2022/12/25 00:46:02;;;;;;;54.00;23.95;;;;;;;5.32;100.00;97044.69;5005747;28;20527;-55
2022/12/25 00:48:30;;;;;;;27.13;14.02;;;;;;;5.59;100.00;97120.25;5006321;28;20132;-55
2022/12/25 00:51:00;;;;;;;23.88;11.55;;;;;;;5.77;100.00;97136.22;5005602;28;20112;-60
2022/12/25 00:53:28;;;;;;;79.80;31.33;;;;;;;5.62;100.00;97122.31;5003571;28;20357;-55
2022/12/25 00:55:59;;;;;;;44.65;18.08;;;;;;;5.47;100.00;97125.69;5005674;28;20050;-59
2022/12/25 00:58:28;;;;;;;161.02;67.30;;;;;;;5.41;100.00;97124.25;5006406;28;20112;-56
2022/12/25 01:00:55;;;;;;;70.57;36.75;;;;;;;5.33;100.00;97133.38;5005773;28;20463;-59
2022/12/25 01:03:23;;;;;;;72.10;34.05;;;;;;;5.30;100.00;97156.81;5004897;28;20054;-60
2022/12/25 01:06:09;;;;;;;54.75;29.83;;;;;;;5.43;100.00;97122.00;4986627;28;20057;-56
2022/12/25 01:10:20;;;;;;;225.98;79.25;;;;;;;5.29;100.00;97115.97;4986867;28;20149;-55
2022/12/25 01:11:25;;;;;;;117.28;50.45;;;;;;;5.38;100.00;97157.88;4986056;28;20093;-59
2022/12/25 01:13:52;;;;;;;102.22;45.72;;;;;;;4.68;100.00;97031.63;5001276;28;20081;-55
2022/12/25 01:16:18;;;;;;;29.70;15.73;;;;;;;5.41;100.00;97151.72;5003895;28;20492;-59
2022/12/25 01:18:45;;;;;;;24.73;15.23;;;;;;;5.51;100.00;97167.81;5005536;28;20058;-59
2022/12/25 01:21:16;;;;;;;66.60;36.20;;;;;;;5.54;100.00;97156.16;5005349;28;20173;-59
2022/12/25 01:23:43;;;;;;;47.45;24.10;;;;;;;5.50;100.00;97144.25;4995444;28;20133;-58
2022/12/25 01:26:12;;;;;;;62.60;32.08;;;;;;;5.46;100.00;97127.63;4983897;28;20065;-59
2022/12/25 01:28:40;;;;;;;36.10;18.55;;;;;;;5.58;100.00;97151.63;4984101;28;20340;-60
2022/12/25 01:31:12;;;;;;;38.08;19.50;;;;;;;5.63;100.00;97143.16;4985487;28;20136;-59
2022/12/25 01:33:41;;;;;;;15.48;7.57;;;;;;;6.03;97.54;97149.78;5002315;28;20496;-57
2022/12/25 01:36:22;;;;;;;26.00;14.80;;;;;;;6.36;93.45;97150.56;5004887;28;20104;-60
2022/12/25 01:38:50;;;;;;;66.80;31.17;;;;;;;5.22;94.26;96978.38;5005754;28;20587;-55
2022/12/25 01:41:20;;;;;;;33.40;15.32;;;;;;;5.87;94.87;97107.56;5003095;28;20111;-55
2022/12/25 01:44:05;;;;;;;34.42;15.63;;;;;;;6.12;94.42;97150.47;5004305;28;20046;-59
2022/12/25 01:46:32;;;;;;;35.92;16.65;;;;;;;5.43;94.06;97051.38;5003239;28;20057;-59
2022/12/25 01:49:07;;;;;;;64.90;28.58;;;;;;;5.34;96.34;97069.09;5004943;28;20133;-55
2022/12/25 01:51:33;;;;;;;23.92;10.95;;;;;;;5.92;95.63;97162.34;5004093;28;20417;-55
2022/12/25 01:54:04;;;;;;;16.30;7.78;;;;;;;5.94;96.22;97143.56;5003642;28;20085;-62
2022/12/25 01:56:34;;;;;;;17.38;9.27;;;;;;;5.91;96.25;97155.25;5004631;28;20164;-60
2022/12/25 01:59:01;;;;;;;59.08;28.35;;;;;;;5.93;95.81;97141.94;5005044;28;20441;-60
2022/12/25 02:01:28;;;;;;;31.48;15.77;;;;;;;5.88;96.26;97155.91;4991451;28;20142;-55
2022/12/25 02:04:05;;;;;;;38.80;17.38;;;;;;;5.90;96.52;97142.63;4986812;28;20054;-59
2022/12/25 02:06:34;;;;;;;39.42;20.75;;;;;;;5.93;96.22;97152.94;5003848;28;20392;-61
2022/12/25 02:09:00;;;;;;;43.40;22.15;;;;;;;6.00;95.72;97158.69;5004445;28;20053;-60
2022/12/25 02:14:12;;;;;;;95.90;36.88;;;;;;;5.40;95.12;97057.56;5004300;28;20050;-56
2022/12/25 02:16:42;;;;;;;16.95;8.82;;;;;;;5.77;96.02;97143.69;5003889;28;20506;-60
2022/12/25 02:19:42;;;;;;;24.67;12.00;;;;;;;5.69;96.21;97152.81;4990718;28;20177;-55
2022/12/25 02:22:09;;;;;;;15.15;6.75;;;;;;;4.26;97.80;96952.03;4984510;28;20100;-55
2022/12/25 02:24:38;;;;;;;10.30;5.43;;;;;;;5.68;96.92;97163.00;4984643;28;20117;-60
2022/12/25 02:27:25;;;;;;;47.40;20.27;;;;;;;5.70;96.12;97162.66;4987418;28;20056;-60
2022/12/25 02:30:05;;;;;;;11.80;6.28;;;;;;;5.67;96.58;97163.31;5003686;28;20162;-60
2022/12/25 02:34:01;;;;;;;18.45;9.55;;;;;;;5.42;95.48;97125.88;5004284;28;20455;-59
2022/12/25 02:35:49;;;;;;;127.82;45.75;;;;;;;5.60;96.10;97160.31;5003629;28;20478;-56
2022/12/25 02:38:29;;;;;;;19.70;9.90;;;;;;;5.38;96.18;97124.94;5004510;28;20103;-60
2022/12/25 02:41:01;;;;;;;20.33;8.43;;;;;;;5.58;96.92;97168.09;5003688;28;20099;-56
2022/12/25 03:06:43;;;;;;;10.35;4.25;;;;;;;4.39;97.99;97090.81;4983843;28;20426;-55
2022/12/25 03:12:36;;;;;;;12.85;6.57;;;;;;;4.90;99.91;97179.50;5001249;28;20073;-61
2022/12/25 03:17:51;;;;;;;10.18;5.28;;;;;;;4.96;98.93;97189.16;4989783;28;20085;-55
2022/12/25 03:28:33;;;;;;;9.43;6.10;;;;;;;4.83;97.96;97179.22;5003218;28;20456;-56
2022/12/25 03:31:12;;;;;;;15.02;8.43;;;;;;;4.87;98.69;97199.38;4991004;28;20113;-60
2022/12/25 04:38:19;;;;;;;18.90;9.15;;;;;;;5.04;93.22;97241.28;4986476;28;20054;-61
2022/12/25 04:40:46;;;;;;;20.77;10.48;;;;;;;3.08;91.56;96911.13;4985380;28;20649;-57
2022/12/25 04:43:13;;;;;;;18.33;8.57;;;;;;;5.39;90.83;97261.94;4986388;28;20046;-56
2022/12/25 04:45:39;;;;;;;21.60;10.30;;;;;;;5.14;90.22;97201.69;4986802;28;20143;-60
2022/12/25 04:48:06;;;;;;;20.30;9.82;;;;;;;4.63;89.69;97132.19;4986657;28;20495;-60
2022/12/25 04:50:32;;;;;;;22.52;10.25;;;;;;;5.45;90.05;97288.09;4985833;28;20445;-60
2022/12/25 04:52:59;;;;;;;35.53;15.88;;;;;;;5.51;89.86;97284.00;4985957;28;20046;-56
2022/12/25 04:55:26;;;;;;;26.25;12.18;;;;;;;4.88;90.22;97187.25;4986765;28;20062;-56
2022/12/25 04:57:52;;;;;;;17.45;8.82;;;;;;;5.61;89.73;97288.31;5005622;28;20054;-56
2022/12/25 05:00:19;;;;;;;16.58;8.27;;;;;;;4.97;88.58;97175.09;5005173;28;20053;-57
2022/12/25 05:02:45;;;;;;;23.73;12.15;;;;;;;5.67;89.05;97289.72;5005525;28;20060;-55
2022/12/25 05:05:12;;;;;;;18.73;9.63;;;;;;;5.71;88.67;97299.72;4994735;28;20058;-60
2022/12/25 05:07:39;;;;;;;15.48;8.80;;;;;;;5.79;87.94;97300.81;4986394;28;20054;-57
2022/12/25 05:10:06;;;;;;;21.27;9.57;;;;;;;5.65;88.03;97284.56;5002921;28;20097;-56
2022/12/25 05:12:33;;;;;;;71.93;30.58;;;;;;;5.76;87.93;97296.78;5005907;28;20058;-56
2022/12/25 05:14:59;;;;;;;69.85;32.50;;;;;;;5.59;89.20;97301.56;5005393;28;20062;-59
2022/12/25 05:17:26;;;;;;;68.70;30.23;;;;;;;5.62;89.48;97303.66;4985951;28;20054;-55
2022/12/25 05:19:52;;;;;;;83.15;35.55;;;;;;;5.44;90.26;97307.63;4985543;28;20416;-60
2022/12/25 05:22:19;;;;;;;97.80;37.40;;;;;;;5.44;90.27;97315.88;4985698;28;20058;-56
2022/12/25 05:24:46;;;;;;;57.95;26.60;;;;;;;5.36;90.70;97319.47;4992897;28;20052;-56
2022/12/25 05:27:13;;;;;;;44.33;22.63;;;;;;;4.98;90.43;97247.28;5005063;28;20077;-56
2022/12/25 05:29:40;;;;;;;73.10;29.98;;;;;;;5.25;91.82;97329.22;5004954;28;20054;-56
2022/12/25 05:32:07;;;;;;;65.82;30.40;;;;;;;5.22;91.97;97325.19;5005262;28;20507;-56
2022/12/25 05:34:33;;;;;;;57.25;27.13;;;;;;;5.40;91.00;97331.41;5005511;28;20108;-59
2022/12/25 05:37:00;;;;;;;47.83;21.02;;;;;;;5.48;90.80;97323.13;5004530;28;20480;-60
2022/12/25 05:39:26;;;;;;;51.97;25.63;;;;;;;5.32;90.46;97310.28;4997025;28;20057;-56
2022/12/25 05:41:53;;;;;;;50.35;21.77;;;;;;;5.27;91.13;97304.97;4984991;28;20090;-59
2022/12/25 05:44:20;;;;;;;87.45;37.42;;;;;;;5.40;91.26;97332.22;4985447;28;20062;-59
2022/12/25 05:46:47;;;;;;;172.93;73.55;;;;;;;4.78;91.23;97259.78;4985222;28;20169;-60
2022/12/25 05:49:14;;;;;;;105.45;50.97;;;;;;;4.86;91.44;97255.38;4985006;28;20046;-56
2022/12/25 05:51:40;;;;;;;173.38;67.60;;;;;;;5.38;91.57;97339.16;4985331;28;20077;-56
2022/12/25 05:54:07;;;;;;;100.95;43.25;;;;;;;5.62;90.15;97344.88;4983572;28;20082;-55
2022/12/25 05:56:36;;;;;;;88.47;35.17;;;;;;;5.75;89.04;97346.59;4985369;28;20493;-56
2022/12/25 05:59:02;;;;;;;70.57;27.48;;;;;;;6.58;84.23;97351.03;4984987;28;20152;-59
2022/12/25 06:01:29;;;;;;;19.77;9.60;;;;;;;6.84;81.21;97348.06;4983256;28;20078;-55
2022/12/25 06:03:56;;;;;;;10.75;4.75;;;;;;;7.31;78.46;97352.06;4984968;28;20142;-60
2022/12/25 06:06:23;;;;;;;11.13;5.45;;;;;;;7.39;77.38;97343.72;5001705;28;20054;-59
2022/12/25 06:08:53;;;;;;;4.65;2.22;;;;;;;7.84;75.37;97354.63;4990029;28;20112;-57
2022/12/25 06:11:20;;;;;;;5.97;2.08;;;;;;;8.11;73.14;97353.16;4974591;28;20104;-61
2022/12/25 06:13:51;;;;;;;4.85;3.53;;;;;;;8.20;73.70;97351.06;4984599;28;20057;-60
2022/12/25 06:16:18;;;;;;;4.03;2.30;;;;;;;8.36;71.70;97354.75;4983059;28;20061;-57
2022/12/25 06:18:49;;;;;;;4.82;2.53;;;;;;;8.69;70.25;97360.88;4984741;28;20460;-61
2022/12/25 06:21:15;;;;;;;9.60;4.88;;;;;;;8.89;69.55;97373.69;4984548;28;20050;-57
2022/12/25 06:23:42;;;;;;;9.55;2.80;;;;;;;9.07;68.33;97375.78;4983261;28;20061;-57
2022/12/25 06:26:13;;;;;;;7.22;2.78;;;;;;;9.21;67.88;97386.44;4984484;28;20100;-57
2022/12/25 06:28:40;;;;;;;7.22;3.97;;;;;;;9.31;66.75;97390.66;4999958;28;20100;-57
2022/12/25 06:31:12;;;;;;;12.98;6.93;;;;;;;9.44;66.50;97409.56;5001901;28;20544;-56
2022/12/25 06:33:39;;;;;;;6.70;4.00;;;;;;;9.09;64.91;97329.25;5004166;28;20083;-56
2022/12/25 06:36:10;;;;;;;11.23;5.95;;;;;;;9.73;63.90;97414.72;4998965;28;20105;-60
2022/12/25 06:38:37;;;;;;;6.55;5.10;;;;;;;9.70;64.14;97393.28;4983197;28;20073;-59
2022/12/25 06:41:12;;;;;;;6.43;4.22;;;;;;;9.09;63.47;97290.56;4984994;28;20066;-58
2022/12/25 06:43:38;;;;;;;9.00;4.53;;;;;;;9.82;63.60;97407.03;4984973;28;20136;-56
2022/12/25 06:46:08;;;;;;;7.85;4.43;;;;;;;9.81;63.51;97422.03;4984973;28;20137;-60
2022/12/25 06:48:37;;;;;;;6.65;3.78;;;;;;;9.68;63.54;97390.06;4982986;28;20513;-57
2022/12/25 06:51:04;;;;;;;4.45;3.08;;;;;;;9.91;62.83;97398.56;4984741;28;20054;-60
2022/12/25 06:53:32;;;;;;;11.38;5.60;;;;;;;9.89;63.46;97418.28;4999478;28;20497;-57
2022/12/25 06:56:08;;;;;;;6.97;3.90;;;;;;;9.84;63.11;97399.19;5003498;28;20092;-56
2022/12/25 06:58:35;;;;;;;7.35;3.40;;;;;;;9.93;63.34;97412.81;5003733;28;20046;-60
2022/12/25 07:01:13;;;;;;;8.98;3.35;;;;;;;9.88;62.73;97405.59;5004005;28;20057;-56
2022/12/25 07:03:44;;;;;;;7.40;3.90;;;;;;;9.91;61.97;97398.56;5001915;28;20054;-61
2022/12/25 07:06:10;;;;;;;4.68;2.50;;;;;;;9.90;61.73;97402.47;4988655;28;20054;-60
2022/12/25 07:08:37;;;;;;;6.15;4.18;;;;;;;9.96;62.11;97412.91;4992839;28;20049;-56
2022/12/25 07:11:05;;;;;;;5.50;3.10;;;;;;;9.99;61.62;97419.72;4981836;28;20521;-57
2022/12/25 07:13:32;;;;;;;6.03;2.97;;;;;;;10.01;61.29;97429.25;4984174;28;20042;-61
2022/12/25 07:16:01;;;;;;;6.53;2.75;;;;;;;9.85;60.60;97391.66;4981721;28;20058;-57
2022/12/25 07:18:28;;;;;;;3.45;1.98;;;;;;;10.03;60.64;97413.13;4983802;28;20133;-57
2022/12/25 07:20:55;;;;;;;7.88;2.70;;;;;;;10.26;60.37;97419.63;4989400;28;20065;-61
2022/12/25 07:23:22;;;;;;;4.88;2.47;;;;;;;10.27;60.75;97417.69;5002517;28;20432;-59
2022/12/25 07:25:58;;;;;;;7.78;3.13;;;;;;;10.31;59.71;97419.38;4983325;28;20054;-56
2022/12/25 07:28:26;;;;;;;6.93;3.40;;;;;;;9.50;59.70;97291.22;4984137;28;20058;-62
2022/12/25 07:30:53;;;;;;;3.80;2.65;;;;;;;9.82;58.91;97356.41;4998860;28;20062;-57
2022/12/25 07:33:19;;;;;;;4.88;2.80;;;;;;;10.45;59.36;97444.63;5003100;28;20062;-61
2022/12/25 07:35:46;;;;;;;8.93;2.78;;;;;;;10.40;59.72;97444.13;5003094;28;20058;-56
2022/12/25 07:38:13;;;;;;;92.18;33.60;;;;;;;10.49;59.12;97441.94;5003072;28;20046;-57
2022/12/25 07:40:40;;;;;;;12.73;4.43;;;;;;;10.47;59.78;97447.84;5003047;28;20050;-57
2022/12/25 07:43:06;;;;;;;4.38;2.83;;;;;;;10.57;59.42;97433.41;5003073;28;20050;-59
2022/12/25 07:45:33;;;;;;;4.28;2.60;;;;;;;10.62;58.96;97413.75;5002950;28;20053;-62
2022/12/25 07:47:59;;;;;;;5.03;3.33;;;;;;;11.13;59.19;97458.03;4994435;28;20137;-58
2022/12/25 07:50:31;;;;;;;6.85;2.95;;;;;;;11.39;57.53;97458.19;4983010;28;20501;-58
2022/12/25 07:52:58;;;;;;;4.30;2.80;;;;;;;11.59;57.05;97468.09;4981966;28;20050;-61
2022/12/25 07:55:25;;;;;;;3.30;2.50;;;;;;;11.74;56.04;97467.25;4983024;28;20521;-57
2022/12/25 07:57:51;;;;;;;4.13;2.50;;;;;;;11.89;56.14;97466.31;4983245;28;20090;-58
2022/12/25 08:00:18;;;;;;;3.30;2.08;;;;;;;11.14;55.31;97357.06;4983189;28;20089;-57
2022/12/25 08:02:48;;;;;;;3.70;2.20;;;;;;;11.79;54.29;97478.06;4985869;28;20082;-59
2022/12/25 08:05:15;;;;;;;3.47;2.40;;;;;;;12.11;55.19;97498.88;4990559;28;20054;-61
2022/12/25 08:07:42;;;;;;;2.60;2.40;;;;;;;12.23;53.50;97503.44;4997208;28;20129;-61
2022/12/25 08:10:09;;;;;;;9.18;4.50;;;;;;;12.34;53.59;97510.81;4986589;28;20061;-60
2022/12/25 08:12:36;;;;;;;12.20;8.10;;;;;;;12.44;53.89;97503.81;4986988;28;20573;-60
2022/12/25 08:15:03;;;;;;;7.18;3.75;;;;;;;12.52;53.58;97500.00;4987107;28;20078;-60
2022/12/25 08:17:29;;;;;;;6.65;3.90;;;;;;;12.42;52.57;97489.50;4986699;28;20078;-61
2022/12/25 08:19:56;;;;;;;10.50;7.43;;;;;;;12.63;51.99;97510.09;4986348;28;20062;-56
2022/12/25 08:22:22;;;;;;;7.22;6.47;;;;;;;12.66;52.61;97501.00;4986512;28;20054;-61
2022/12/25 08:24:49;;;;;;;5.70;2.95;;;;;;;12.33;51.60;97458.41;4987190;28;20344;-57
2022/12/25 08:27:16;;;;;;;5.03;3.90;;;;;;;12.70;51.27;97501.88;4984950;28;20514;-56
2022/12/25 08:29:43;;;;;;;8.57;3.50;;;;;;;12.28;51.76;97423.41;4984787;28;20054;-56
2022/12/25 08:32:10;;;;;;;2.72;2.00;;;;;;;12.76;51.34;97516.25;4990542;28;20105;-60
2022/12/25 08:34:37;;;;;;;12.20;7.40;;;;;;;12.84;50.82;97518.78;5002170;28;20053;-61
2022/12/25 08:37:04;;;;;;;6.68;4.03;;;;;;;13.00;50.73;97515.84;4986429;28;20062;-56
2022/12/25 08:39:31;;;;;;;5.15;2.95;;;;;;;13.11;51.21;97492.59;4986467;28;20112;-60
2022/12/25 08:41:57;;;;;;;4.22;2.97;;;;;;;13.18;50.23;97528.84;4984163;28;20663;-57
2022/12/25 08:44:24;;;;;;;4.43;2.65;;;;;;;13.17;51.00;97518.91;5000937;28;20101;-60
2022/12/25 08:46:51;;;;;;;4.22;2.90;;;;;;;12.81;49.58;97455.59;5003643;28;20630;-62
2022/12/25 08:49:18;;;;;;;7.88;5.28;;;;;;;13.05;50.57;97477.44;5004284;28;20485;-61
2022/12/25 08:51:45;;;;;;;6.25;3.45;;;;;;;13.31;49.84;97516.34;5003551;28;20120;-61
2022/12/25 08:54:11;;;;;;;10.82;5.00;;;;;;;13.23;50.15;97508.28;5003266;28;20054;-59
2022/12/25 08:56:38;;;;;;;4.88;3.25;;;;;;;13.02;50.56;97492.09;4985642;28;20050;-61
2022/12/25 08:59:05;;;;;;;5.30;4.72;;;;;;;13.10;51.01;97488.22;4986285;28;20116;-61
2022/12/25 09:01:31;;;;;;;6.20;4.45;;;;;;;12.77;50.27;97445.59;4985543;28;20512;-57
2022/12/25 09:03:58;;;;;;;4.03;2.90;;;;;;;13.14;50.48;97489.06;4985479;28;20047;-61
2022/12/25 09:06:25;;;;;;;18.38;9.80;;;;;;;13.15;50.48;97489.88;4996053;28;20476;-61
2022/12/25 09:08:52;;;;;;;3.55;2.22;;;;;;;13.09;50.06;97492.19;5005008;28;20511;-57
2022/12/25 09:11:19;;;;;;;5.07;3.72;;;;;;;12.39;51.10;97381.88;5004527;28;20054;-57
2022/12/25 09:13:47;;;;;;;7.32;5.28;;;;;;;12.72;50.60;97432.81;5004393;28;20081;-57
2022/12/25 09:16:17;;;;;;;2.88;2.53;;;;;;;12.96;50.64;97482.41;4985199;28;20050;-61
2022/12/25 09:18:44;;;;;;;5.82;3.58;;;;;;;13.18;51.20;97478.78;4985475;28;20054;-61
2022/12/25 09:21:13;;;;;;;7.30;3.55;;;;;;;13.16;48.78;97470.03;4984061;28;20136;-61
2022/12/25 09:23:40;;;;;;;6.10;3.45;;;;;;;13.05;49.13;97468.28;4983701;28;20514;-57
2022/12/25 09:26:11;;;;;;;3.03;2.72;;;;;;;13.38;48.57;97504.50;4984904;28;20046;-61
2022/12/25 09:28:38;;;;;;;4.22;2.78;;;;;;;13.35;49.33;97511.63;4984204;28;20120;-61
2022/12/25 09:31:07;;;;;;;6.00;3.25;;;;;;;13.48;48.50;97499.06;4984723;28;20076;-60
2022/12/25 09:33:34;;;;;;;3.25;2.95;;;;;;;13.31;49.42;97485.72;4984938;28;20437;-61
2022/12/25 09:36:05;;;;;;;5.60;3.13;;;;;;;13.46;46.07;97493.09;4985024;28;20117;-60
2022/12/25 09:38:33;;;;;;;3.97;2.75;;;;;;;13.58;47.06;97492.84;4983963;28;20583;-56
2022/12/25 09:41:19;;;;;;;4.28;2.25;;;;;;;13.51;46.96;97491.97;4984756;28;20144;-57
2022/12/25 09:44:01;;;;;;;5.35;2.88;;;;;;;13.39;47.38;97501.34;4985176;28;20058;-60
2022/12/25 09:46:40;;;;;;;4.32;2.50;;;;;;;13.46;47.19;97481.97;4984807;28;20054;-58
2022/12/25 09:49:33;;;;;;;5.40;2.85;;;;;;;13.40;48.30;97486.25;4984951;28;20050;-58
2022/12/25 09:52:09;;;;;;;4.38;2.92;;;;;;;13.47;48.14;97480.78;4982049;28;20329;-57
2022/12/25 09:54:48;;;;;;;4.28;2.90;;;;;;;13.56;48.77;97478.50;4985210;28;20140;-61
2022/12/25 09:57:15;;;;;;;18.02;8.98;;;;;;;13.67;47.12;97479.41;4990017;28;20046;-58
2022/12/25 09:59:43;;;;;;;3.25;2.40;;;;;;;13.65;46.80;97476.25;4984847;28;20539;-59
2022/12/25 10:02:45;;;;;;;4.40;3.05;;;;;;;13.72;46.79;97480.28;4993673;28;20068;-57
2022/12/25 10:05:24;;;;;;;4.00;2.17;;;;;;;13.61;46.59;97492.09;5001070;28;20128;-60
2022/12/25 10:07:56;;;;;;;7.50;4.25;;;;;;;13.74;46.50;97473.16;4984578;28;20128;-58
2022/12/25 10:10:38;;;;;;;7.78;4.68;;;;;;;13.85;47.15;97485.19;4985063;28;20057;-57
2022/12/25 10:13:14;;;;;;;5.85;3.42;;;;;;;13.83;46.40;97476.41;4986710;28;20491;-57
2022/12/25 10:16:08;;;;;;;9.05;6.95;;;;;;;13.45;46.20;97415.56;4984266;28;20093;-57
2022/12/25 10:19:01;;;;;;;8.25;4.63;;;;;;;14.01;46.50;97474.63;4985382;28;20082;-61
2022/12/25 10:21:28;;;;;;;6.00;3.95;;;;;;;13.95;43.96;97483.72;4985087;28;20085;-57
2022/12/25 10:24:09;;;;;;;7.93;4.95;;;;;;;13.66;44.68;97424.13;5001615;28;20108;-60
2022/12/25 10:26:35;;;;;;;6.30;3.30;;;;;;;13.93;44.93;97466.56;5002549;28;20551;-61
2022/12/25 10:29:13;;;;;;;4.75;3.08;;;;;;;13.67;45.56;97446.00;5002592;28;20081;-57
2022/12/25 10:31:44;;;;;;;7.65;5.32;;;;;;;13.97;45.82;97475.78;5003990;28;20062;-57
2022/12/25 10:34:13;;;;;;;5.28;4.05;;;;;;;13.79;45.42;97452.50;5003762;28;20054;-60
2022/12/25 10:36:42;;;;;;;13.27;7.35;;;;;;;13.34;44.67;97393.16;5004009;28;20049;-61
2022/12/25 10:39:20;;;;;;;8.27;6.20;;;;;;;13.86;45.18;97477.66;4985343;28;20100;-59
2022/12/25 10:42:05;;;;;;;6.75;3.95;;;;;;;13.95;45.35;97483.72;4983931;28;20085;-59
2022/12/25 10:44:33;;;;;;;15.50;8.73;;;;;;;14.02;45.06;97478.22;4984411;28;20062;-57
2022/12/25 10:47:01;;;;;;;7.53;6.75;;;;;;;13.73;44.90;97431.75;4995165;28;20050;-60
2022/12/25 10:49:36;;;;;;;9.43;5.35;;;;;;;14.12;44.06;97471.94;5004430;28;20108;-57
2022/12/25 10:52:20;;;;;;;8.65;4.10;;;;;;;13.90;44.11;97431.13;5002312;28;20088;-60
2022/12/25 10:54:47;;;;;;;4.20;2.40;;;;;;;14.33;43.30;97473.00;5003937;28;20049;-60
2022/12/25 10:57:16;;;;;;;3.15;2.63;;;;;;;14.46;43.51;97465.94;5003151;28;20062;-60
2022/12/25 10:59:45;;;;;;;4.90;3.63;;;;;;;14.59;43.17;97463.69;5003725;28;20049;-60
2022/12/25 11:02:26;;;;;;;12.00;6.32;;;;;;;14.80;43.05;97464.63;5003933;28;20080;-58
2022/12/25 11:05:03;;;;;;;6.35;3.50;;;;;;;14.94;42.13;97469.50;5002314;28;20057;-57
2022/12/25 11:07:31;;;;;;;18.05;11.52;;;;;;;14.70;42.27;97409.56;4985961;28;20151;-60
2022/12/25 11:10:02;;;;;;;7.60;4.85;;;;;;;14.97;42.67;97474.28;4984266;28;20132;-60
2022/12/25 11:12:34;;;;;;;;;;;;;;;15.06;42.34;97460.81;4984955;28;20104;-56
2022/12/25 11:15:25;;;;;;;6.75;2.92;;;;;;;15.09;43.34;97465.63;4984193;28;19929;-60
2022/12/25 11:17:52;;;;;;;4.47;2.50;;;;;;;15.03;42.21;97472.78;4988221;28;20087;-57
2022/12/25 11:20:19;;;;;;;7.10;3.42;;;;;;;14.96;42.85;97472.72;5003142;28;20582;-60
2022/12/25 11:22:48;;;;;;;3.97;2.97;;;;;;;14.82;43.51;97453.09;5003549;28;20088;-60
2022/12/25 11:25:24;;;;;;;3.67;2.67;;;;;;;14.86;43.34;97470.63;5003312;28;20058;-60
2022/12/25 11:28:03;;;;;;;10.82;6.78;;;;;;;14.79;42.65;97459.44;4983951;28;20054;-61
2022/12/25 11:30:32;;;;;;;5.03;3.45;;;;;;;14.78;42.69;97471.78;4982307;28;20062;-57
2022/12/25 11:33:04;;;;;;;2.95;2.30;;;;;;;14.63;42.97;97454.16;4983765;28;20135;-61
2022/12/25 11:35:42;;;;;;;3.78;2.42;;;;;;;14.21;42.68;97413.94;4994326;28;20062;-57
2022/12/25 11:38:08;;;;;;;3.05;2.67;;;;;;;14.57;42.53;97471.63;4999264;28;20058;-58
2022/12/25 11:40:53;;;;;;;3.45;2.85;;;;;;;14.62;43.41;97465.69;4988056;28;20566;-57
2022/12/25 11:43:34;;;;;;;4.82;3.55;;;;;;;14.69;41.47;97472.13;4986788;28;20082;-59
2022/12/25 11:46:22;;;;;;;5.88;3.58;;;;;;;14.80;42.13;97466.63;4987576;28;20128;-59
2022/12/25 11:48:55;;;;;;;3.13;2.38;;;;;;;14.76;41.61;97474.16;4987768;28;20058;-59
2022/12/25 11:51:30;;;;;;;3.87;2.30;;;;;;;14.65;41.44;97478.84;4987197;28;20093;-57
2022/12/25 11:54:06;;;;;;;3.65;2.70;;;;;;;14.58;42.24;97470.41;4986360;28;20050;-59
2022/12/25 11:56:33;;;;;;;4.35;2.95;;;;;;;14.53;42.01;97459.63;4987263;28;20108;-57
2022/12/25 11:59:07;;;;;;;3.95;2.90;;;;;;;14.04;42.82;97370.81;4987263;28;20571;-57
2022/12/25 12:01:43;;;;;;;2.50;2.13;;;;;;;14.60;41.46;97456.91;4987196;28;20050;-57
2022/12/25 12:04:28;;;;;;;7.30;4.50;;;;;;;14.51;42.24;97428.56;4994491;28;20057;-59
2022/12/25 12:07:12;;;;;;;10.23;4.80;;;;;;;14.57;41.47;97410.28;4993868;28;20148;-57
2022/12/25 12:09:49;;;;;;;26.83;9.20;;;;;;;14.82;41.62;97478.19;5002374;28;20050;-57
2022/12/25 12:12:34;;;;;;;2.28;2.05;;;;;;;14.22;42.02;97412.75;4993735;28;20089;-58
2022/12/25 12:15:06;;;;;;;3.47;2.80;;;;;;;14.21;42.81;97405.59;5005414;28;20069;-57
2022/12/25 12:17:33;;;;;;;2.13;2.00;;;;;;;14.48;43.56;97482.31;5006925;28;20077;-58
2022/12/25 12:20:25;;;;;;;2.25;2.05;;;;;;;14.53;42.86;97512.59;5006677;28;20582;-58
2022/12/25 12:22:52;;;;;;;3.70;2.90;;;;;;;14.39;43.04;97481.81;5006673;28;20057;-58
2022/12/25 12:25:20;;;;;;;5.00;2.42;;;;;;;14.20;43.50;97474.44;5004218;28;20092;-58
2022/12/25 12:27:53;;;;;;;5.25;2.65;;;;;;;14.07;44.28;97458.41;5006513;28;20128;-56
2022/12/25 12:30:34;;;;;;;2.10;1.83;;;;;;;14.25;44.46;97474.13;5006165;28;20053;-58
2022/12/25 12:33:06;;;;;;;3.45;2.50;;;;;;;13.64;44.70;97352.13;5005671;28;20060;-59
2022/12/25 12:35:36;;;;;;;5.35;2.80;;;;;;;13.98;44.35;97430.03;5000055;28;20418;-56
2022/12/25 12:38:18;;;;;;;5.85;4.07;;;;;;;14.26;44.18;97483.25;4986722;28;20132;-58
2022/12/25 12:40:59;;;;;;;2.40;1.70;;;;;;;13.92;43.34;97434.34;4984869;28;20543;-56
2022/12/25 12:43:42;;;;;;;2.10;1.90;;;;;;;13.97;43.31;97447.94;4987015;28;20642;-58
2022/12/25 12:46:27;;;;;;;3.17;1.90;;;;;;;14.16;43.76;97483.94;4986443;28;20576;-56
2022/12/25 12:49:20;;;;;;;13.90;8.70;;;;;;;14.04;43.75;97506.50;4984533;28;20086;-56
2022/12/25 12:51:48;;;;;;;2.90;2.08;;;;;;;13.92;44.78;97478.91;4999581;28;20084;-56
2022/12/25 12:54:23;;;;;;;5.85;3.50;;;;;;;13.81;44.73;97494.69;5006305;28;20085;-57
2022/12/25 12:57:04;;;;;;;5.80;2.80;;;;;;;13.79;44.80;97494.28;5006176;28;20634;-56
2022/12/25 12:59:45;;;;;;;2.97;2.17;;;;;;;13.67;44.86;97487.78;5005789;28;20142;-57
2022/12/25 13:02:39;;;;;;;4.13;2.67;;;;;;;13.70;45.31;97492.59;4987749;28;20144;-57
2022/12/25 13:05:37;;;;;;;3.72;2.75;;;;;;;13.75;44.67;97507.38;4985753;28;20164;-57
2022/12/25 13:08:09;;;;;;;23.67;9.68;;;;;;;13.67;45.75;97501.69;4985993;28;20506;-57
2022/12/25 13:10:40;;;;;;;10.63;7.45;;;;;;;13.46;46.56;97483.94;4986107;28;20125;-57
2022/12/25 13:13:32;;;;;;;3.45;2.45;;;;;;;13.53;46.26;97495.97;4986028;28;20128;-59
2022/12/25 13:15:59;;;;;;;4.93;2.97;;;;;;;13.56;46.36;97506.34;4986110;28;20144;-57
2022/12/25 13:18:26;;;;;;;4.45;2.65;;;;;;;13.44;46.62;97492.66;5001217;28;20448;-57
2022/12/25 13:20:59;;;;;;;3.30;1.48;;;;;;;13.44;46.26;97514.94;5007217;28;20050;-61
2022/12/25 13:23:27;;;;;;;7.05;3.15;;;;;;;13.47;46.05;97503.03;5005738;28;20050;-57
2022/12/25 13:25:57;;;;;;;1.73;1.55;;;;;;;10.84;45.28;97114.97;5005141;28;20057;-59
2022/12/25 13:28:29;;;;;;;2.13;1.95;;;;;;;13.24;45.60;97571.91;5003680;28;20077;-57
2022/12/25 13:31:14;;;;;;;8.80;4.63;;;;;;;13.43;45.70;97518.91;5005354;28;20456;-57
2022/12/25 13:33:46;;;;;;;8.60;4.88;;;;;;;13.05;46.04;97446.84;5005197;28;20085;-58
2022/12/25 13:36:14;;;;;;;35.90;19.98;;;;;;;13.08;46.61;97460.00;5005153;28;20138;-58